createdAt,value
2017-10-09T00:00:26.768Z,49.30
2017-10-09T00:01:26.732Z,48.30
2017-10-09T00:02:26.696Z,51.10
2017-10-09T00:03:26.663Z,51.70
2017-10-09T00:04:26.628Z,54.40
2017-10-09T00:05:26.593Z,52.80
2017-10-09T00:06:26.557Z,55.10
2017-10-09T00:07:26.525Z,56.00
2017-10-09T00:08:26.488Z,57.10
2017-10-09T00:09:26.454Z,57.20
2017-10-09T00:10:26.419Z,57.20
2017-10-09T00:11:26.384Z,57.00
2017-10-09T00:12:26.350Z,56.70
2017-10-09T00:13:26.315Z,56.30
2017-10-09T00:14:26.282Z,52.60
2017-10-09T00:15:26.246Z,55.80
2017-10-09T00:16:26.210Z,53.80
2017-10-09T00:17:26.175Z,58.20
2017-10-09T00:18:26.141Z,63.60
2017-10-09T00:19:26.106Z,60.60
2017-10-09T00:20:26.069Z,58.40
2017-10-09T00:21:26.034Z,56.70
2017-10-09T00:22:26.003Z,53.50
2017-10-09T00:23:25.965Z,52.90
2017-10-09T00:24:25.931Z,55.70
2017-10-09T00:25:25.897Z,55.40
2017-10-09T00:26:25.861Z,56.60
2017-10-09T00:27:25.831Z,56.70
2017-10-09T00:28:25.791Z,54.10
2017-10-09T00:29:25.757Z,53.90
2017-10-09T00:30:25.722Z,56.80
2017-10-09T00:31:25.689Z,56.30
2017-10-09T00:32:25.652Z,55.30
2017-10-09T00:33:25.618Z,57.80
2017-10-09T00:34:25.582Z,59.90
2017-10-09T00:35:25.548Z,54.60
2017-10-09T00:36:25.513Z,54.30
2017-10-09T00:37:25.483Z,52.90
2017-10-09T00:38:25.444Z,55.00
2017-10-09T00:39:25.408Z,55.30
2017-10-09T00:40:25.373Z,52.60
2017-10-09T00:41:25.341Z,52.50
2017-10-09T00:42:25.304Z,55.70
2017-10-09T00:43:25.268Z,55.70
2017-10-09T00:44:25.232Z,54.40
2017-10-09T00:45:25.198Z,52.40
2017-10-09T00:46:25.164Z,51.20
2017-10-09T00:47:25.129Z,50.00
2017-10-09T00:48:25.093Z,52.20
2017-10-09T00:49:25.061Z,52.10
2017-10-09T00:50:25.025Z,52.60
2017-10-09T00:51:24.990Z,51.30
2017-10-09T00:52:24.955Z,51.80
2017-10-09T00:53:24.920Z,54.80
2017-10-09T00:54:24.886Z,55.40
2017-10-09T00:55:24.852Z,52.70
2017-10-09T00:56:24.814Z,47.60
2017-10-09T00:57:24.779Z,49.60
2017-10-09T00:58:24.746Z,48.50
2017-10-09T00:59:24.712Z,48.60
2017-10-09T01:00:24.674Z,51.00
2017-10-09T01:01:24.640Z,51.60
2017-10-09T01:02:24.606Z,49.90
2017-10-09T01:03:24.572Z,51.60
2017-10-09T01:04:24.533Z,54.70
2017-10-09T01:05:24.499Z,56.20
2017-10-09T01:06:24.463Z,55.40
2017-10-09T01:07:24.430Z,57.20
2017-10-09T01:08:24.396Z,54.50
2017-10-09T01:09:24.361Z,53.10
2017-10-09T01:10:24.326Z,50.00
2017-10-09T01:11:24.291Z,52.50
2017-10-09T01:12:24.254Z,51.80
2017-10-09T01:13:24.220Z,51.80
2017-10-09T01:14:24.186Z,52.70
2017-10-09T01:15:24.151Z,55.50
2017-10-09T01:16:24.117Z,53.70
2017-10-09T01:17:24.081Z,57.00
2017-10-09T01:18:24.047Z,55.60
2017-10-09T01:19:24.013Z,53.50
2017-10-09T01:20:23.976Z,54.30
2017-10-09T01:21:23.941Z,53.70
2017-10-09T01:22:23.907Z,52.50
2017-10-09T01:23:23.870Z,53.80
2017-10-09T01:24:23.837Z,51.40
2017-10-09T01:25:23.800Z,52.90
2017-10-09T01:26:23.767Z,51.60
2017-10-09T01:27:23.731Z,51.40
2017-10-09T01:28:23.695Z,49.50
2017-10-09T01:29:23.662Z,48.00
2017-10-09T01:30:23.628Z,49.40
2017-10-09T01:31:23.591Z,49.70
2017-10-09T01:32:23.556Z,47.80
2017-10-09T01:33:23.521Z,47.40
2017-10-09T01:34:23.488Z,47.80
2017-10-09T01:35:23.448Z,48.00
2017-10-09T01:36:23.417Z,45.70
2017-10-09T01:37:23.380Z,48.70
2017-10-09T01:38:23.346Z,45.40
2017-10-09T01:39:23.310Z,48.00
2017-10-09T01:40:23.275Z,47.00
2017-10-09T01:41:23.239Z,47.20
2017-10-09T01:42:23.205Z,50.90
2017-10-09T01:43:23.174Z,51.30
2017-10-09T01:44:23.141Z,48.50
2017-10-09T01:45:23.103Z,49.60
2017-10-09T01:46:23.066Z,50.80
2017-10-09T01:47:23.030Z,47.20
2017-10-09T01:48:22.995Z,47.30
2017-10-09T01:49:22.960Z,47.80
2017-10-09T01:50:22.926Z,47.60
2017-10-09T01:51:22.888Z,48.40
2017-10-09T01:52:22.853Z,50.40
2017-10-09T01:53:22.820Z,51.10
2017-10-09T01:54:22.784Z,51.80
2017-10-09T01:55:22.748Z,52.80
2017-10-09T01:56:22.713Z,49.80
2017-10-09T01:57:22.680Z,51.20
2017-10-09T01:58:22.642Z,51.60
2017-10-09T01:59:22.610Z,50.50
2017-10-09T02:00:22.574Z,51.50
2017-10-09T02:01:22.538Z,53.20
2017-10-09T02:02:22.504Z,52.70
2017-10-09T02:03:22.469Z,55.20
2017-10-09T02:04:22.431Z,54.70
2017-10-09T02:05:22.397Z,52.40
2017-10-09T02:06:22.364Z,53.30
2017-10-09T02:07:22.329Z,52.90
2017-10-09T02:08:22.294Z,51.70
2017-10-09T02:09:22.258Z,57.10
2017-10-09T02:10:22.223Z,55.50
2017-10-09T02:11:22.189Z,55.60
2017-10-09T02:12:22.154Z,56.30
2017-10-09T02:13:22.118Z,52.40
2017-10-09T02:14:22.082Z,52.50
2017-10-09T02:15:22.048Z,54.10
2017-10-09T02:16:22.011Z,52.90
2017-10-09T02:17:21.979Z,54.40
2017-10-09T02:18:21.943Z,53.30
2017-10-09T02:19:21.909Z,56.90
2017-10-09T02:20:21.873Z,58.40
2017-10-09T02:21:21.837Z,54.60
2017-10-09T02:22:21.801Z,54.30
2017-10-09T02:23:21.767Z,52.60
2017-10-09T02:24:21.731Z,54.30
2017-10-09T02:25:21.696Z,56.10
2017-10-09T02:26:21.664Z,55.60
2017-10-09T02:27:21.631Z,55.80
2017-10-09T02:28:21.598Z,55.10
2017-10-09T02:29:21.558Z,54.90
2017-10-09T02:30:21.525Z,56.60
2017-10-09T02:31:21.489Z,55.80
2017-10-09T02:32:21.452Z,51.40
2017-10-09T02:33:21.420Z,53.70
2017-10-09T02:34:21.390Z,53.60
2017-10-09T02:35:21.348Z,56.00
2017-10-09T02:36:21.313Z,59.70
2017-10-09T02:37:21.280Z,55.70
2017-10-09T02:38:21.243Z,53.50
2017-10-09T02:39:21.207Z,54.60
2017-10-09T02:40:21.171Z,55.40
2017-10-09T02:41:21.138Z,58.40
2017-10-09T02:42:21.104Z,58.20
2017-10-09T02:43:21.068Z,59.80
2017-10-09T02:44:21.033Z,57.30
2017-10-09T02:45:20.998Z,59.50
2017-10-09T02:46:20.962Z,57.80
2017-10-09T02:47:20.929Z,55.70
2017-10-09T02:48:20.891Z,57.00
2017-10-09T02:49:20.856Z,56.20
2017-10-09T02:50:20.822Z,59.30
2017-10-09T02:51:20.788Z,61.40
2017-10-09T02:52:20.752Z,60.30
2017-10-09T02:53:20.715Z,56.50
2017-10-09T02:54:20.681Z,55.50
2017-10-09T02:55:20.646Z,60.00
2017-10-09T02:56:20.610Z,56.80
2017-10-09T02:57:20.575Z,60.40
2017-10-09T02:58:20.541Z,62.30
2017-10-09T02:59:20.506Z,64.30
2017-10-09T03:00:20.469Z,59.90
2017-10-09T03:01:20.435Z,61.50
2017-10-09T03:02:20.398Z,61.70
2017-10-09T03:03:20.365Z,59.10
2017-10-09T03:04:20.328Z,58.20
2017-10-09T03:05:20.294Z,56.20
2017-10-09T03:06:20.259Z,56.00
2017-10-09T03:07:20.224Z,54.00
2017-10-09T03:08:20.189Z,58.00
2017-10-09T03:09:20.154Z,54.70
2017-10-09T03:10:20.122Z,56.20
2017-10-09T03:11:20.085Z,55.30
2017-10-09T03:12:20.049Z,57.80
2017-10-09T03:13:20.033Z,58.70
2017-10-09T03:14:19.979Z,58.50
2017-10-09T03:15:19.943Z,59.30
2017-10-09T03:16:19.908Z,57.60
2017-10-09T03:17:19.873Z,59.90
2017-10-09T03:18:19.838Z,58.50
2017-10-09T03:19:19.807Z,62.90
2017-10-09T03:20:19.767Z,61.90
2017-10-09T03:21:19.731Z,62.60
2017-10-09T03:22:19.698Z,62.50
2017-10-09T03:23:19.661Z,62.60
2017-10-09T03:24:19.625Z,64.70
2017-10-09T03:25:19.591Z,64.10
2017-10-09T03:26:19.555Z,62.90
2017-10-09T03:27:19.522Z,61.90
2017-10-09T03:28:19.484Z,65.40
2017-10-09T03:29:19.450Z,62.40
2017-10-09T03:30:19.414Z,61.20
2017-10-09T03:31:19.380Z,67.70
2017-10-09T03:32:19.344Z,66.70
2017-10-09T03:33:19.310Z,65.90
2017-10-09T03:34:19.272Z,65.20
2017-10-09T03:35:19.239Z,61.00
2017-10-09T03:36:19.203Z,57.90
2017-10-09T03:37:19.182Z,64.40
2017-10-09T03:38:19.133Z,59.20
2017-10-09T03:39:19.098Z,58.80
2017-10-09T03:40:19.061Z,59.00
2017-10-09T03:41:19.027Z,63.10
2017-10-09T03:42:18.990Z,62.10
2017-10-09T03:43:18.957Z,61.50
2017-10-09T03:44:18.919Z,62.40
2017-10-09T03:45:18.886Z,64.00
2017-10-09T03:46:18.849Z,61.80
2017-10-09T03:47:18.815Z,60.40
2017-10-09T03:48:18.779Z,61.60
2017-10-09T03:49:18.743Z,59.70
2017-10-09T03:50:18.709Z,59.40
2017-10-09T03:51:18.674Z,61.30
2017-10-09T03:52:18.637Z,59.50
2017-10-09T03:53:18.602Z,60.10
2017-10-09T03:54:18.566Z,58.70
2017-10-09T03:55:18.531Z,60.00
2017-10-09T03:56:18.496Z,59.40
2017-10-09T03:57:18.462Z,60.00
2017-10-09T03:58:18.428Z,59.20
2017-10-09T03:59:18.394Z,60.60
2017-10-09T04:00:18.354Z,59.70
2017-10-09T04:01:18.318Z,59.10
2017-10-09T04:02:18.286Z,59.80
2017-10-09T04:03:18.250Z,57.50
2017-10-09T04:04:18.217Z,59.20
2017-10-09T04:05:18.179Z,58.70
2017-10-09T04:06:18.147Z,53.50
2017-10-09T04:07:18.107Z,55.40
2017-10-09T04:08:18.072Z,56.30
2017-10-09T04:09:18.038Z,54.90
2017-10-09T04:10:18.001Z,54.70
2017-10-09T04:11:17.967Z,57.40
2017-10-09T04:12:17.932Z,54.20
2017-10-09T04:13:17.898Z,54.30
2017-10-09T04:14:17.862Z,54.10
2017-10-09T04:15:17.825Z,52.70
2017-10-09T04:16:17.789Z,52.80
2017-10-09T04:17:17.755Z,53.30
2017-10-09T04:18:17.719Z,56.00
2017-10-09T04:19:17.685Z,56.40
2017-10-09T04:20:17.649Z,55.40
2017-10-09T04:21:17.614Z,54.30
2017-10-09T04:22:17.578Z,53.60
2017-10-09T04:23:17.543Z,54.20
2017-10-09T04:24:17.508Z,53.40
2017-10-09T04:25:17.471Z,53.70
2017-10-09T04:26:17.437Z,52.00
2017-10-09T04:27:17.402Z,49.20
2017-10-09T04:28:17.368Z,49.40
2017-10-09T04:29:17.344Z,44.80
2017-10-09T04:30:17.296Z,46.00
2017-10-09T04:31:17.260Z,45.30
2017-10-09T04:32:17.225Z,45.80
2017-10-09T04:33:17.190Z,45.20
2017-10-09T04:34:17.154Z,44.90
2017-10-09T04:35:17.119Z,47.60
2017-10-09T04:36:17.084Z,47.10
2017-10-09T04:37:17.051Z,46.90
2017-10-09T04:38:17.016Z,48.50
2017-10-09T04:39:16.979Z,48.20
2017-10-09T04:40:16.945Z,49.90
2017-10-09T04:41:16.908Z,46.90
2017-10-09T04:42:16.873Z,47.40
2017-10-09T04:43:16.838Z,43.40
2017-10-09T04:44:16.802Z,45.60
2017-10-09T04:45:16.768Z,45.60
2017-10-09T04:46:16.730Z,43.40
2017-10-09T04:47:16.698Z,42.10
2017-10-09T04:48:16.660Z,43.50
2017-10-09T04:49:16.626Z,43.00
2017-10-09T04:50:16.591Z,43.10
2017-10-09T04:51:16.557Z,42.00
2017-10-09T04:52:16.519Z,40.00
2017-10-09T04:53:16.484Z,40.70
2017-10-09T04:54:16.448Z,43.70
2017-10-09T04:55:16.413Z,41.60
2017-10-09T04:56:16.378Z,40.40
2017-10-09T04:57:16.343Z,41.70
2017-10-09T04:58:16.308Z,40.70
2017-10-09T04:59:16.274Z,41.70
2017-10-09T05:00:16.237Z,41.50
2017-10-09T05:01:16.203Z,39.00
2017-10-09T05:02:16.166Z,44.30
2017-10-09T05:03:16.132Z,43.60
2017-10-09T05:04:16.095Z,42.20
2017-10-09T05:05:16.064Z,44.10
2017-10-09T05:06:16.026Z,41.80
2017-10-09T05:07:15.993Z,40.30
2017-10-09T05:08:15.956Z,40.10
2017-10-09T05:09:15.922Z,40.10
2017-10-09T05:10:15.886Z,44.20
2017-10-09T05:11:15.851Z,45.50
2017-10-09T05:12:15.816Z,44.00
2017-10-09T05:13:15.780Z,42.50
2017-10-09T05:14:15.746Z,42.90
2017-10-09T05:15:15.713Z,44.30
2017-10-09T05:16:15.675Z,40.10
2017-10-09T05:17:15.640Z,41.60
2017-10-09T05:18:15.606Z,39.50
2017-10-09T05:19:15.569Z,40.10
2017-10-09T05:20:15.534Z,41.90
2017-10-09T05:21:15.500Z,41.10
2017-10-09T05:22:15.464Z,41.80
2017-10-09T05:23:15.429Z,40.60
2017-10-09T05:24:15.394Z,37.90
2017-10-09T05:25:15.360Z,38.30
2017-10-09T05:26:15.323Z,37.70
2017-10-09T05:27:15.289Z,38.40
2017-10-09T05:28:15.254Z,39.20
2017-10-09T05:29:15.219Z,38.40
2017-10-09T05:30:15.184Z,40.00
2017-10-09T05:31:15.145Z,37.70
2017-10-09T05:32:15.113Z,39.00
2017-10-09T05:33:15.079Z,39.00
2017-10-09T05:34:15.046Z,38.60
2017-10-09T05:35:15.011Z,36.90
2017-10-09T05:36:14.972Z,36.20
2017-10-09T05:37:14.937Z,35.60
2017-10-09T05:38:14.906Z,35.80
2017-10-09T05:39:14.875Z,36.60
2017-10-09T05:40:14.833Z,35.30
2017-10-09T05:41:14.798Z,34.10
2017-10-09T05:42:14.764Z,34.30
2017-10-09T05:43:14.729Z,32.70
2017-10-09T05:44:14.692Z,31.70
2017-10-09T05:45:14.658Z,30.00
2017-10-09T05:46:14.622Z,32.00
2017-10-09T05:47:14.589Z,29.30
2017-10-09T05:48:14.552Z,31.00
2017-10-09T05:49:14.518Z,27.50
2017-10-09T05:50:14.483Z,29.60
2017-10-09T05:51:14.447Z,29.10
2017-10-09T05:52:14.412Z,28.60
2017-10-09T05:53:14.377Z,28.80
2017-10-09T05:54:14.342Z,28.70
2017-10-09T05:55:14.307Z,27.50
2017-10-09T05:56:14.272Z,25.10
2017-10-09T05:57:14.246Z,24.70
2017-10-09T05:58:14.201Z,24.90
2017-10-09T05:59:14.168Z,25.20
2017-10-09T06:00:14.131Z,27.10
2017-10-09T06:01:14.097Z,25.10
2017-10-09T06:02:14.062Z,23.70
2017-10-09T06:03:14.025Z,25.10
2017-10-09T06:04:13.991Z,23.50
2017-10-09T06:05:13.956Z,25.60
2017-10-09T06:06:13.921Z,25.20
2017-10-09T06:07:13.885Z,23.90
2017-10-09T06:08:13.850Z,24.70
2017-10-09T06:09:13.818Z,24.80
2017-10-09T06:10:13.780Z,24.50
2017-10-09T06:11:13.745Z,26.70
2017-10-09T06:12:13.711Z,25.40
2017-10-09T06:13:13.675Z,25.40
2017-10-09T06:14:13.641Z,26.30
2017-10-09T06:15:13.608Z,27.50
2017-10-09T06:16:13.569Z,28.00
2017-10-09T06:17:13.532Z,26.70
2017-10-09T06:18:13.503Z,26.80
2017-10-09T06:19:13.467Z,26.90
2017-10-09T06:20:13.429Z,28.20
2017-10-09T06:21:13.394Z,27.40
2017-10-09T06:22:13.360Z,27.20
2017-10-09T06:23:13.324Z,28.20
2017-10-09T06:24:13.290Z,28.70
2017-10-09T06:25:13.253Z,28.90
2017-10-09T06:26:13.221Z,28.70
2017-10-09T06:27:13.184Z,28.10
2017-10-09T06:28:13.151Z,27.30
2017-10-09T06:29:13.114Z,28.80
2017-10-09T06:30:13.079Z,28.20
2017-10-09T06:31:13.044Z,28.30
2017-10-09T06:32:13.020Z,26.10
2017-10-09T06:33:12.974Z,27.50
2017-10-09T06:34:12.940Z,28.50
2017-10-09T06:35:12.904Z,28.00
2017-10-09T06:36:12.870Z,30.80
2017-10-09T06:37:12.833Z,29.10
2017-10-09T06:38:12.803Z,27.90
2017-10-09T06:39:12.765Z,29.30
2017-10-09T06:40:12.730Z,28.30
2017-10-09T06:41:12.694Z,29.10
2017-10-09T06:42:12.660Z,29.60
2017-10-09T06:43:12.627Z,28.00
2017-10-09T06:44:12.587Z,28.80
2017-10-09T06:45:12.555Z,29.80
2017-10-09T06:46:12.521Z,29.20
2017-10-09T06:47:12.485Z,31.30
2017-10-09T06:48:12.451Z,32.60
2017-10-09T06:49:12.415Z,31.80
2017-10-09T06:50:12.380Z,32.70
2017-10-09T06:51:12.345Z,32.20
2017-10-09T06:52:12.310Z,32.70
2017-10-09T06:53:12.277Z,33.60
2017-10-09T06:54:12.240Z,32.80
2017-10-09T06:55:12.204Z,32.00
2017-10-09T06:56:12.170Z,33.90
2017-10-09T06:57:12.136Z,33.50
2017-10-09T06:58:12.101Z,35.90
2017-10-09T06:59:12.065Z,35.00
2017-10-09T07:00:12.030Z,35.30
2017-10-09T07:01:11.997Z,35.30
2017-10-09T07:02:11.962Z,36.10
2017-10-09T07:03:11.927Z,38.20
2017-10-09T07:04:11.892Z,38.20
2017-10-09T07:05:11.858Z,39.30
2017-10-09T07:06:11.824Z,41.20
2017-10-09T07:07:11.791Z,42.90
2017-10-09T07:08:11.752Z,43.20
2017-10-09T07:09:11.717Z,44.80
2017-10-09T07:10:11.686Z,47.20
2017-10-09T07:11:11.649Z,45.70
2017-10-09T07:12:11.613Z,44.30
2017-10-09T07:13:11.577Z,44.60
2017-10-09T07:14:12.459Z,45.90
2017-10-09T07:15:11.509Z,48.70
2017-10-09T07:16:11.475Z,46.30
2017-10-09T07:17:11.439Z,45.20
2017-10-09T07:18:11.406Z,49.30
2017-10-09T07:19:11.369Z,46.90
2017-10-09T07:20:11.336Z,47.90
2017-10-09T07:21:11.302Z,47.30
2017-10-09T07:22:11.269Z,47.20
2017-10-09T07:23:11.232Z,48.00
2017-10-09T07:24:11.197Z,46.00
2017-10-09T07:25:11.163Z,47.10
2017-10-09T07:26:11.127Z,45.00
2017-10-09T07:27:11.092Z,47.10
2017-10-09T07:28:11.056Z,46.80
2017-10-09T07:29:11.023Z,45.90
2017-10-09T07:30:10.990Z,47.50
2017-10-09T07:31:10.955Z,47.50
2017-10-09T07:32:10.918Z,49.40
2017-10-09T07:33:10.883Z,48.10
2017-10-09T07:34:10.850Z,49.60
2017-10-09T07:35:10.815Z,48.60
2017-10-09T07:36:10.781Z,47.40
2017-10-09T07:37:10.747Z,47.40
2017-10-09T07:38:10.711Z,46.20
2017-10-09T07:39:10.678Z,44.80
2017-10-09T07:40:10.644Z,45.80
2017-10-09T07:41:10.609Z,47.80
2017-10-09T07:42:10.574Z,45.40
2017-10-09T07:43:10.543Z,45.40
2017-10-09T07:44:10.507Z,45.10
2017-10-09T07:45:10.471Z,46.30
2017-10-09T07:46:10.436Z,49.00
2017-10-09T07:47:10.407Z,46.30
2017-10-09T07:48:10.367Z,46.50
2017-10-09T07:49:10.333Z,46.30
2017-10-09T07:50:10.298Z,45.80
2017-10-09T07:51:10.266Z,45.50
2017-10-09T07:52:10.232Z,42.70
2017-10-09T07:53:10.198Z,46.00
2017-10-09T07:54:10.164Z,47.50
2017-10-09T07:55:10.149Z,47.70
2017-10-09T07:56:10.094Z,46.30
2017-10-09T07:57:10.060Z,47.60
2017-10-09T07:58:10.026Z,48.50
2017-10-09T07:59:09.991Z,47.10
2017-10-09T08:00:09.959Z,47.10
2017-10-09T08:01:09.922Z,48.00
2017-10-09T08:02:09.889Z,48.30
2017-10-09T08:03:09.855Z,45.60
2017-10-09T08:04:09.820Z,47.10
2017-10-09T08:05:09.786Z,43.60
2017-10-09T08:06:09.752Z,44.00
2017-10-09T08:07:09.719Z,43.90
2017-10-09T08:08:09.684Z,41.00
2017-10-09T08:09:09.651Z,42.90
2017-10-09T08:10:09.616Z,42.70
2017-10-09T08:11:09.583Z,40.40
2017-10-09T08:12:09.547Z,43.50
2017-10-09T08:13:09.515Z,43.30
2017-10-09T08:14:09.481Z,39.20
2017-10-09T08:15:09.446Z,41.00
2017-10-09T08:16:09.412Z,39.30
2017-10-09T08:17:09.377Z,38.30
2017-10-09T08:18:09.344Z,40.30
2017-10-09T08:19:09.312Z,41.30
2017-10-09T08:20:09.278Z,41.50
2017-10-09T08:21:09.243Z,42.10
2017-10-09T08:22:09.210Z,41.80
2017-10-09T08:23:09.176Z,41.00
2017-10-09T08:24:09.141Z,41.80
2017-10-09T08:25:09.108Z,40.40
2017-10-09T08:26:09.079Z,39.50
2017-10-09T08:27:09.042Z,39.90
2017-10-09T08:28:09.007Z,37.90
2017-10-09T08:29:08.975Z,36.10
2017-10-09T08:30:08.942Z,39.70
2017-10-09T08:31:08.908Z,39.30
2017-10-09T08:32:08.874Z,36.50
2017-10-09T08:33:08.841Z,36.30
2017-10-09T08:34:08.804Z,37.90
2017-10-09T08:35:08.776Z,34.10
2017-10-09T08:36:08.743Z,34.20
2017-10-09T08:37:08.710Z,32.70
2017-10-09T08:38:08.676Z,33.20
2017-10-09T08:39:08.647Z,35.00
2017-10-09T08:40:08.610Z,33.10
2017-10-09T08:41:08.578Z,31.70
2017-10-09T08:42:08.544Z,30.00
2017-10-09T08:43:08.513Z,32.30
2017-10-09T08:44:08.479Z,31.00
2017-10-09T08:45:08.464Z,30.80
2017-10-09T08:46:08.414Z,29.90
2017-10-09T08:47:08.382Z,30.30
2017-10-09T08:48:08.350Z,28.30
2017-10-09T08:49:08.317Z,30.80
2017-10-09T08:50:08.286Z,29.20
2017-10-09T08:51:08.252Z,28.50
2017-10-09T08:52:08.217Z,29.50
2017-10-09T08:53:08.186Z,28.20
2017-10-09T08:54:08.154Z,28.70
2017-10-09T08:55:08.123Z,28.40
2017-10-09T08:56:08.091Z,28.20
2017-10-09T08:57:08.058Z,29.00
2017-10-09T08:58:08.026Z,55.00
2017-10-09T08:59:07.994Z,29.20
2017-10-09T09:00:07.960Z,29.40
2017-10-09T09:01:07.930Z,30.00
2017-10-09T09:02:07.897Z,29.80
2017-10-09T09:03:07.867Z,29.20
2017-10-09T09:04:07.832Z,26.20
2017-10-09T09:05:07.800Z,27.00
2017-10-09T09:06:07.768Z,27.60
2017-10-09T09:07:07.738Z,27.40
2017-10-09T09:08:07.710Z,26.40
2017-10-09T09:09:07.675Z,26.20
2017-10-09T09:10:07.643Z,28.90
2017-10-09T09:11:07.612Z,29.70
2017-10-09T09:12:07.579Z,28.50
2017-10-09T09:13:07.548Z,28.60
2017-10-09T09:14:07.517Z,28.10
2017-10-09T09:15:07.487Z,28.10
2017-10-09T09:16:07.453Z,27.80
2017-10-09T09:17:07.419Z,28.10
2017-10-09T09:18:07.391Z,27.70
2017-10-09T09:19:07.359Z,27.50
2017-10-09T09:20:07.326Z,28.60
2017-10-09T09:21:07.296Z,27.90
2017-10-09T09:22:07.263Z,28.90
2017-10-09T09:23:07.232Z,26.40
2017-10-09T09:24:07.200Z,25.80
2017-10-09T09:25:07.168Z,24.30
2017-10-09T09:26:07.136Z,25.70
2017-10-09T09:27:07.106Z,25.20
2017-10-09T09:28:07.071Z,25.70
2017-10-09T09:29:07.043Z,26.00
2017-10-09T09:30:07.011Z,25.60
2017-10-09T09:31:06.980Z,25.20
2017-10-09T09:32:06.948Z,25.40
2017-10-09T09:33:06.918Z,25.00
2017-10-09T09:34:06.885Z,24.70
2017-10-09T09:35:06.855Z,24.80
2017-10-09T09:36:06.822Z,23.90
2017-10-09T09:37:06.793Z,23.00
2017-10-09T09:38:06.760Z,23.70
2017-10-09T09:39:06.724Z,23.90
2017-10-09T09:40:06.698Z,25.00
2017-10-09T09:41:06.666Z,24.30
2017-10-09T09:42:06.635Z,23.40
2017-10-09T09:43:06.606Z,21.80
2017-10-09T09:44:06.573Z,22.20
2017-10-09T09:45:06.541Z,22.20
2017-10-09T09:46:06.513Z,21.90
2017-10-09T09:47:06.478Z,22.10
2017-10-09T09:48:06.449Z,21.30
2017-10-09T09:49:06.416Z,19.70
2017-10-09T09:50:06.384Z,21.30
2017-10-09T09:51:06.355Z,20.10
2017-10-09T09:52:06.323Z,20.70
2017-10-09T09:53:06.291Z,21.10
2017-10-09T09:54:06.262Z,22.30
2017-10-09T09:55:06.232Z,21.40
2017-10-09T09:56:06.201Z,19.90
2017-10-09T09:57:06.169Z,20.80
2017-10-09T09:58:06.138Z,20.50
2017-10-09T09:59:06.108Z,19.70
2017-10-09T10:00:06.076Z,19.20
2017-10-09T10:01:06.047Z,20.60
2017-10-09T10:02:06.016Z,18.40
2017-10-09T10:03:05.985Z,17.70
2017-10-09T10:04:05.962Z,19.30
2017-10-09T10:05:05.925Z,19.30
2017-10-09T10:06:05.891Z,19.80
2017-10-09T10:07:05.861Z,18.60
2017-10-09T10:08:05.829Z,18.20
2017-10-09T10:09:05.799Z,18.60
2017-10-09T10:10:05.768Z,18.20
2017-10-09T10:11:05.739Z,17.60
2017-10-09T10:12:05.706Z,17.70
2017-10-09T10:13:05.677Z,18.20
2017-10-09T10:14:05.644Z,18.20
2017-10-09T10:15:05.617Z,18.30
2017-10-09T10:16:05.587Z,17.20
2017-10-09T10:17:05.554Z,17.30
2017-10-09T10:18:05.521Z,18.40
2017-10-09T10:19:05.492Z,17.20
2017-10-09T10:20:05.474Z,17.50
2017-10-09T10:21:05.430Z,17.30
2017-10-09T10:22:05.397Z,17.90
2017-10-09T10:23:05.368Z,17.40
2017-10-09T10:24:05.336Z,18.40
2017-10-09T10:25:05.304Z,18.20
2017-10-09T10:26:05.274Z,18.20
2017-10-09T10:27:05.243Z,19.80
2017-10-09T10:28:05.213Z,18.10
2017-10-09T10:29:05.182Z,18.30
2017-10-09T10:30:05.149Z,17.30
2017-10-09T10:31:05.119Z,18.40
2017-10-09T10:32:05.088Z,17.80
2017-10-09T10:33:05.055Z,17.50
2017-10-09T10:34:05.025Z,18.30
2017-10-09T10:35:04.994Z,17.70
2017-10-09T10:36:04.962Z,17.60
2017-10-09T10:37:04.929Z,17.20
2017-10-09T10:38:04.899Z,17.80
2017-10-09T10:39:04.868Z,17.90
2017-10-09T10:40:04.836Z,17.90
2017-10-09T10:41:04.805Z,17.90
2017-10-09T10:42:04.773Z,16.40
2017-10-09T10:43:04.742Z,16.50
2017-10-09T10:44:04.711Z,16.20
2017-10-09T10:45:04.679Z,15.70
2017-10-09T10:46:04.647Z,16.40
2017-10-09T10:47:04.617Z,16.90
2017-10-09T10:48:04.585Z,15.00
2017-10-09T10:49:04.554Z,16.20
2017-10-09T10:50:04.523Z,15.60
2017-10-09T10:51:04.490Z,15.70
2017-10-09T10:52:04.461Z,15.00
2017-10-09T10:53:04.429Z,16.70
2017-10-09T10:54:04.397Z,15.30
2017-10-09T10:55:04.367Z,15.40
2017-10-09T10:56:04.334Z,16.20
2017-10-09T10:57:04.305Z,15.10
2017-10-09T10:58:04.274Z,15.90
2017-10-09T10:59:04.243Z,14.70
2017-10-09T11:00:04.211Z,14.80
2017-10-09T11:01:04.180Z,16.10
2017-10-09T11:02:04.150Z,15.00
2017-10-09T11:03:04.120Z,13.50
2017-10-09T11:04:04.089Z,14.00
2017-10-09T11:05:04.060Z,15.20
2017-10-09T11:06:04.028Z,13.40
2017-10-09T11:07:03.996Z,12.20
2017-10-09T11:08:03.965Z,13.10
2017-10-09T11:09:03.934Z,14.80
2017-10-09T11:10:03.908Z,13.60
2017-10-09T11:11:03.872Z,13.40
2017-10-09T11:12:03.842Z,13.70
2017-10-09T11:13:03.810Z,13.80
2017-10-09T11:14:03.785Z,14.60
2017-10-09T11:15:03.750Z,14.50
2017-10-09T11:16:03.716Z,13.70
2017-10-09T11:17:03.688Z,14.20
2017-10-09T11:18:03.658Z,14.20
2017-10-09T11:19:03.626Z,13.60
2017-10-09T11:20:03.596Z,12.90
2017-10-09T11:21:03.565Z,13.80
2017-10-09T11:22:03.534Z,13.40
2017-10-09T11:23:03.504Z,13.60
2017-10-09T11:24:03.473Z,13.50
2017-10-09T11:25:03.442Z,13.20
2017-10-09T11:26:03.411Z,14.40
2017-10-09T11:27:03.381Z,14.10
2017-10-09T11:28:03.350Z,13.50
2017-10-09T11:29:03.319Z,14.50
2017-10-09T11:30:03.293Z,12.00
2017-10-09T11:31:03.258Z,13.00
2017-10-09T11:32:03.234Z,13.10
2017-10-09T11:33:03.213Z,13.90
2017-10-09T11:34:03.166Z,12.70
2017-10-09T11:35:03.138Z,13.20
2017-10-09T11:36:03.122Z,13.20
2017-10-09T11:37:03.075Z,12.60
2017-10-09T11:38:03.044Z,13.20
2017-10-09T11:39:03.017Z,13.40
2017-10-09T11:40:02.986Z,13.90
2017-10-09T11:41:02.956Z,12.10
2017-10-09T11:42:02.927Z,12.40
2017-10-09T11:43:02.897Z,12.80
2017-10-09T11:44:02.866Z,13.60
2017-10-09T11:45:02.838Z,14.10
2017-10-09T11:46:02.809Z,12.70
2017-10-09T11:47:02.781Z,12.50
2017-10-09T11:48:02.750Z,11.70
2017-10-09T11:49:02.721Z,11.80
2017-10-09T11:50:02.693Z,11.90
2017-10-09T11:51:02.666Z,11.80
2017-10-09T11:52:02.637Z,11.50
2017-10-09T11:53:02.609Z,12.10
2017-10-09T11:54:02.580Z,11.60
2017-10-09T11:55:02.557Z,12.50
2017-10-09T11:56:02.522Z,11.40
2017-10-09T11:57:02.496Z,11.30
2017-10-09T11:58:02.466Z,11.30
2017-10-09T11:59:02.441Z,11.70
2017-10-09T12:00:02.409Z,11.60
2017-10-09T12:01:02.381Z,11.90
2017-10-09T12:02:02.355Z,11.80
2017-10-09T12:03:02.326Z,12.00
2017-10-09T12:04:02.295Z,12.00
2017-10-09T12:05:02.267Z,13.10
2017-10-09T12:06:02.239Z,12.80
2017-10-09T12:07:02.210Z,12.50
2017-10-09T12:08:02.182Z,11.80
2017-10-09T12:09:02.156Z,11.20
2017-10-09T12:10:02.126Z,11.30
2017-10-09T12:11:02.097Z,12.80
2017-10-09T12:12:02.069Z,11.70
2017-10-09T12:13:02.042Z,11.20
2017-10-09T12:14:02.012Z,11.50
2017-10-09T12:15:01.983Z,11.10
2017-10-09T12:16:01.953Z,11.40
2017-10-09T12:17:01.925Z,11.00
2017-10-09T12:18:01.897Z,11.30
2017-10-09T12:19:01.869Z,11.50
2017-10-09T12:20:01.839Z,12.10
2017-10-09T12:21:01.810Z,11.30
2017-10-09T12:22:01.781Z,12.00
2017-10-09T12:23:01.752Z,10.50
2017-10-09T12:24:01.723Z,10.70
2017-10-09T12:25:01.693Z,11.60
2017-10-09T12:26:01.670Z,11.40
2017-10-09T12:27:01.635Z,11.00
2017-10-09T12:28:01.605Z,11.30
2017-10-09T12:29:01.576Z,11.30
2017-10-09T12:30:01.548Z,10.70
2017-10-09T12:31:01.521Z,10.80
2017-10-09T12:32:01.488Z,10.50
2017-10-09T12:33:01.460Z,11.90
2017-10-09T12:34:01.430Z,11.80
2017-10-09T12:35:01.401Z,12.30
2017-10-09T12:36:01.367Z,10.80
2017-10-09T12:37:01.340Z,12.00
2017-10-09T12:38:01.311Z,11.50
2017-10-09T12:39:01.280Z,12.20
2017-10-09T12:40:01.249Z,12.70
2017-10-09T12:41:01.220Z,11.90
2017-10-09T12:42:01.189Z,13.40
2017-10-09T12:43:01.161Z,12.50
2017-10-09T12:44:01.130Z,12.40
2017-10-09T12:45:01.100Z,13.80
2017-10-09T12:46:01.073Z,12.00
2017-10-09T12:47:01.034Z,12.30
2017-10-09T12:48:01.008Z,11.90
2017-10-09T12:49:00.978Z,11.70
2017-10-09T12:50:00.947Z,11.40
2017-10-09T12:51:00.920Z,11.60
2017-10-09T12:52:00.888Z,11.60